sensor_id;sensor_type;location;lat;lon;timestamp;P1;durP1;ratioP1;P2;durP2;ratioP2
5363;SDS011;2705;41.410;2.160;2023-07-13T00:01:16;16.67;;;5.90;;
5363;SDS011;2705;41.410;2.160;2023-07-13T00:03:46;12.13;;;5.53;;
5363;SDS011;2705;41.410;2.160;2023-07-13T00:06:15;15.00;;;6.43;;
5363;SDS011;2705;41.410;2.160;2023-07-13T00:08:47;12.40;;;5.80;;
5363;SDS011;2705;41.410;2.160;2023-07-13T00:11:17;10.10;;;4.60;;
5363;SDS011;2705;41.410;2.160;2023-07-13T00:13:46;17.83;;;5.73;;
5363;SDS011;2705;41.410;2.160;2023-07-13T00:16:16;12.53;;;5.40;;
5363;SDS011;2705;41.410;2.160;2023-07-13T00:18:45;16.90;;;5.40;;
5363;SDS011;2705;41.410;2.160;2023-07-13T00:21:15;9.63;;;5.30;;
5363;SDS011;2705;41.410;2.160;2023-07-13T00:23:44;15.40;;;5.90;;
5363;SDS011;2705;41.410;2.160;2023-07-13T00:26:15;13.80;;;5.30;;
5363;SDS011;2705;41.410;2.160;2023-07-13T00:28:45;16.90;;;6.00;;
5363;SDS011;2705;41.410;2.160;2023-07-13T00:31:14;12.50;;;5.20;;
5363;SDS011;2705;41.410;2.160;2023-07-13T00:33:44;14.63;;;4.90;;
5363;SDS011;2705;41.410;2.160;2023-07-13T00:36:13;9.63;;;5.87;;
5363;SDS011;2705;41.410;2.160;2023-07-13T00:38:44;18.37;;;5.77;;
5363;SDS011;2705;41.410;2.160;2023-07-13T00:41:16;11.07;;;5.20;;
5363;SDS011;2705;41.410;2.160;2023-07-13T00:43:45;18.27;;;6.10;;
5363;SDS011;2705;41.410;2.160;2023-07-13T00:46:23;12.03;;;5.10;;
5363;SDS011;2705;41.410;2.160;2023-07-13T00:48:53;16.27;;;6.00;;
5363;SDS011;2705;41.410;2.160;2023-07-13T00:51:25;11.07;;;5.03;;
5363;SDS011;2705;41.410;2.160;2023-07-13T00:53:57;10.40;;;4.70;;
5363;SDS011;2705;41.410;2.160;2023-07-13T00:56:28;12.13;;;5.23;;
5363;SDS011;2705;41.410;2.160;2023-07-13T00:58:59;15.90;;;5.73;;
5363;SDS011;2705;41.410;2.160;2023-07-13T01:01:30;19.10;;;5.03;;
5363;SDS011;2705;41.410;2.160;2023-07-13T01:04:00;12.90;;;5.20;;
5363;SDS011;2705;41.410;2.160;2023-07-13T01:06:30;14.40;;;5.10;;
5363;SDS011;2705;41.410;2.160;2023-07-13T01:08:59;15.97;;;5.00;;
5363;SDS011;2705;41.410;2.160;2023-07-13T01:11:30;12.57;;;5.17;;
5363;SDS011;2705;41.410;2.160;2023-07-13T01:13:59;23.27;;;5.80;;
5363;SDS011;2705;41.410;2.160;2023-07-13T01:16:30;9.40;;;4.80;;
5363;SDS011;2705;41.410;2.160;2023-07-13T01:19:00;17.57;;;5.50;;
5363;SDS011;2705;41.410;2.160;2023-07-13T01:21:32;14.37;;;5.40;;
5363;SDS011;2705;41.410;2.160;2023-07-13T01:24:02;11.93;;;5.47;;
5363;SDS011;2705;41.410;2.160;2023-07-13T01:26:32;12.90;;;5.50;;
5363;SDS011;2705;41.410;2.160;2023-07-13T01:29:01;15.50;;;5.30;;
5363;SDS011;2705;41.410;2.160;2023-07-13T01:31:30;13.93;;;5.33;;
5363;SDS011;2705;41.410;2.160;2023-07-13T01:34:00;13.60;;;5.70;;
5363;SDS011;2705;41.410;2.160;2023-07-13T01:36:31;15.03;;;5.50;;
5363;SDS011;2705;41.410;2.160;2023-07-13T01:39:02;15.10;;;6.00;;
5363;SDS011;2705;41.410;2.160;2023-07-13T01:41:31;13.07;;;5.83;;
5363;SDS011;2705;41.410;2.160;2023-07-13T01:44:01;19.70;;;6.10;;
5363;SDS011;2705;41.410;2.160;2023-07-13T01:46:30;22.47;;;6.10;;
5363;SDS011;2705;41.410;2.160;2023-07-13T01:49:00;16.40;;;6.07;;
5363;SDS011;2705;41.410;2.160;2023-07-13T01:51:29;20.63;;;6.20;;
5363;SDS011;2705;41.410;2.160;2023-07-13T01:54:01;23.13;;;6.33;;
5363;SDS011;2705;41.410;2.160;2023-07-13T01:56:30;15.47;;;5.90;;
5363;SDS011;2705;41.410;2.160;2023-07-13T01:58:59;18.33;;;6.67;;
5363;SDS011;2705;41.410;2.160;2023-07-13T02:01:29;17.43;;;5.77;;
5363;SDS011;2705;41.410;2.160;2023-07-13T02:03:59;14.30;;;5.83;;
5363;SDS011;2705;41.410;2.160;2023-07-13T02:06:32;18.43;;;6.23;;
5363;SDS011;2705;41.410;2.160;2023-07-13T02:09:03;20.33;;;6.40;;
5363;SDS011;2705;41.410;2.160;2023-07-13T02:11:33;15.70;;;6.30;;
5363;SDS011;2705;41.410;2.160;2023-07-13T02:14:02;15.53;;;6.57;;
5363;SDS011;2705;41.410;2.160;2023-07-13T02:16:32;18.27;;;6.13;;
5363;SDS011;2705;41.410;2.160;2023-07-13T02:19:02;14.50;;;6.80;;
5363;SDS011;2705;41.410;2.160;2023-07-13T02:21:31;14.30;;;6.30;;
5363;SDS011;2705;41.410;2.160;2023-07-13T02:24:00;15.37;;;6.37;;
5363;SDS011;2705;41.410;2.160;2023-07-13T02:26:32;20.80;;;6.43;;
5363;SDS011;2705;41.410;2.160;2023-07-13T02:29:01;14.70;;;6.60;;
5363;SDS011;2705;41.410;2.160;2023-07-13T02:31:30;15.73;;;6.80;;
5363;SDS011;2705;41.410;2.160;2023-07-13T02:34:00;16.47;;;6.23;;
5363;SDS011;2705;41.410;2.160;2023-07-13T02:36:30;20.60;;;7.30;;
5363;SDS011;2705;41.410;2.160;2023-07-13T02:39:00;16.00;;;6.03;;
5363;SDS011;2705;41.410;2.160;2023-07-13T02:41:29;14.07;;;5.97;;
5363;SDS011;2705;41.410;2.160;2023-07-13T02:44:01;19.53;;;6.37;;
5363;SDS011;2705;41.410;2.160;2023-07-13T02:46:31;15.90;;;6.50;;
5363;SDS011;2705;41.410;2.160;2023-07-13T02:49:00;28.73;;;6.70;;
5363;SDS011;2705;41.410;2.160;2023-07-13T02:51:30;21.63;;;6.40;;
5363;SDS011;2705;41.410;2.160;2023-07-13T02:54:01;20.60;;;6.33;;
5363;SDS011;2705;41.410;2.160;2023-07-13T02:56:31;17.73;;;7.13;;
5363;SDS011;2705;41.410;2.160;2023-07-13T02:59:03;17.23;;;6.80;;
5363;SDS011;2705;41.410;2.160;2023-07-13T03:01:32;17.83;;;6.43;;
5363;SDS011;2705;41.410;2.160;2023-07-13T03:04:02;13.37;;;5.77;;
5363;SDS011;2705;41.410;2.160;2023-07-13T03:06:34;19.23;;;6.87;;
5363;SDS011;2705;41.410;2.160;2023-07-13T03:09:04;21.27;;;7.70;;
5363;SDS011;2705;41.410;2.160;2023-07-13T03:11:38;16.80;;;6.73;;
5363;SDS011;2705;41.410;2.160;2023-07-13T03:14:20;18.47;;;6.50;;
5363;SDS011;2705;41.410;2.160;2023-07-13T03:16:50;15.80;;;6.50;;
5363;SDS011;2705;41.410;2.160;2023-07-13T03:19:23;20.60;;;6.30;;
5363;SDS011;2705;41.410;2.160;2023-07-13T03:21:54;23.23;;;6.80;;
5363;SDS011;2705;41.410;2.160;2023-07-13T03:24:24;15.83;;;6.67;;
5363;SDS011;2705;41.410;2.160;2023-07-13T03:26:53;10.53;;;6.27;;
5363;SDS011;2705;41.410;2.160;2023-07-13T03:29:25;21.00;;;7.23;;
5363;SDS011;2705;41.410;2.160;2023-07-13T03:31:54;17.10;;;6.60;;
5363;SDS011;2705;41.410;2.160;2023-07-13T03:34:24;13.63;;;6.30;;
5363;SDS011;2705;41.410;2.160;2023-07-13T03:36:53;21.87;;;6.70;;
5363;SDS011;2705;41.410;2.160;2023-07-13T03:39:23;12.63;;;6.00;;
5363;SDS011;2705;41.410;2.160;2023-07-13T03:41:55;17.93;;;6.80;;
5363;SDS011;2705;41.410;2.160;2023-07-13T03:44:26;16.50;;;7.27;;
5363;SDS011;2705;41.410;2.160;2023-07-13T03:46:56;15.37;;;6.17;;
5363;SDS011;2705;41.410;2.160;2023-07-13T03:49:27;21.93;;;6.80;;
5363;SDS011;2705;41.410;2.160;2023-07-13T03:51:56;17.50;;;6.30;;
5363;SDS011;2705;41.410;2.160;2023-07-13T03:54:26;17.37;;;6.07;;
5363;SDS011;2705;41.410;2.160;2023-07-13T03:56:56;15.33;;;7.70;;
5363;SDS011;2705;41.410;2.160;2023-07-13T03:59:27;13.27;;;6.23;;
5363;SDS011;2705;41.410;2.160;2023-07-13T04:01:57;16.07;;;6.70;;
5363;SDS011;2705;41.410;2.160;2023-07-13T04:04:26;13.20;;;6.40;;
5363;SDS011;2705;41.410;2.160;2023-07-13T04:06:56;17.03;;;6.80;;
5363;SDS011;2705;41.410;2.160;2023-07-13T04:09:26;16.03;;;7.17;;
5363;SDS011;2705;41.410;2.160;2023-07-13T04:11:55;19.00;;;6.80;;
5363;SDS011;2705;41.410;2.160;2023-07-13T04:14:28;22.53;;;7.10;;
5363;SDS011;2705;41.410;2.160;2023-07-13T04:16:58;18.23;;;7.20;;
5363;SDS011;2705;41.410;2.160;2023-07-13T04:19:27;20.30;;;6.40;;
5363;SDS011;2705;41.410;2.160;2023-07-13T04:21:57;22.53;;;6.80;;
5363;SDS011;2705;41.410;2.160;2023-07-13T04:24:26;14.40;;;6.37;;
5363;SDS011;2705;41.410;2.160;2023-07-13T04:26:55;19.97;;;6.87;;
5363;SDS011;2705;41.410;2.160;2023-07-13T04:29:28;16.43;;;7.37;;
5363;SDS011;2705;41.410;2.160;2023-07-13T04:31:57;19.53;;;6.40;;
5363;SDS011;2705;41.410;2.160;2023-07-13T04:34:27;16.57;;;6.70;;
5363;SDS011;2705;41.410;2.160;2023-07-13T04:36:56;15.77;;;6.53;;
5363;SDS011;2705;41.410;2.160;2023-07-13T04:39:26;21.27;;;7.63;;
5363;SDS011;2705;41.410;2.160;2023-07-13T04:41:55;14.73;;;7.00;;
5363;SDS011;2705;41.410;2.160;2023-07-13T04:44:25;26.60;;;6.47;;
5363;SDS011;2705;41.410;2.160;2023-07-13T04:46:56;19.47;;;7.03;;
5363;SDS011;2705;41.410;2.160;2023-07-13T04:49:25;21.50;;;8.00;;
5363;SDS011;2705;41.410;2.160;2023-07-13T04:51:55;16.13;;;6.20;;
5363;SDS011;2705;41.410;2.160;2023-07-13T04:54:24;20.43;;;6.90;;
5363;SDS011;2705;41.410;2.160;2023-07-13T04:56:54;17.30;;;7.57;;
5363;SDS011;2705;41.410;2.160;2023-07-13T04:59:24;18.97;;;7.60;;
5363;SDS011;2705;41.410;2.160;2023-07-13T05:01:53;22.20;;;7.87;;
5363;SDS011;2705;41.410;2.160;2023-07-13T05:04:24;21.30;;;7.10;;
5363;SDS011;2705;41.410;2.160;2023-07-13T05:06:54;17.40;;;7.00;;
5363;SDS011;2705;41.410;2.160;2023-07-13T05:09:24;30.87;;;7.97;;
5363;SDS011;2705;41.410;2.160;2023-07-13T05:11:53;11.47;;;6.23;;
5363;SDS011;2705;41.410;2.160;2023-07-13T05:14:23;11.30;;;5.80;;
5363;SDS011;2705;41.410;2.160;2023-07-13T05:16:53;21.13;;;7.30;;
5363;SDS011;2705;41.410;2.160;2023-07-13T05:19:26;20.30;;;7.07;;
5363;SDS011;2705;41.410;2.160;2023-07-13T05:21:55;17.00;;;6.57;;
5363;SDS011;2705;41.410;2.160;2023-07-13T05:24:24;13.23;;;6.30;;
5363;SDS011;2705;41.410;2.160;2023-07-13T05:26:54;13.33;;;6.13;;
5363;SDS011;2705;41.410;2.160;2023-07-13T05:29:23;18.60;;;6.90;;
5363;SDS011;2705;41.410;2.160;2023-07-13T05:31:53;20.53;;;7.83;;
5363;SDS011;2705;41.410;2.160;2023-07-13T05:34:23;20.20;;;7.63;;
5363;SDS011;2705;41.410;2.160;2023-07-13T05:36:55;20.40;;;8.40;;
5363;SDS011;2705;41.410;2.160;2023-07-13T05:39:25;20.90;;;8.30;;
5363;SDS011;2705;41.410;2.160;2023-07-13T05:41:54;17.20;;;8.13;;
5363;SDS011;2705;41.410;2.160;2023-07-13T05:44:24;13.47;;;7.30;;
5363;SDS011;2705;41.410;2.160;2023-07-13T05:46:54;17.93;;;8.13;;
5363;SDS011;2705;41.410;2.160;2023-07-13T05:49:24;17.73;;;7.30;;
5363;SDS011;2705;41.410;2.160;2023-07-13T05:51:55;15.07;;;7.00;;
5363;SDS011;2705;41.410;2.160;2023-07-13T05:54:24;15.20;;;6.87;;
5363;SDS011;2705;41.410;2.160;2023-07-13T05:56:54;17.77;;;7.83;;
5363;SDS011;2705;41.410;2.160;2023-07-13T05:59:23;16.17;;;7.30;;
5363;SDS011;2705;41.410;2.160;2023-07-13T06:01:53;20.63;;;7.57;;
5363;SDS011;2705;41.410;2.160;2023-07-13T06:04:22;13.17;;;6.50;;
5363;SDS011;2705;41.410;2.160;2023-07-13T06:06:51;12.70;;;6.90;;
5363;SDS011;2705;41.410;2.160;2023-07-13T06:09:23;14.33;;;6.80;;
5363;SDS011;2705;41.410;2.160;2023-07-13T06:11:53;16.60;;;7.20;;
5363;SDS011;2705;41.410;2.160;2023-07-13T06:14:23;24.20;;;7.30;;
5363;SDS011;2705;41.410;2.160;2023-07-13T06:16:52;17.23;;;6.13;;
5363;SDS011;2705;41.410;2.160;2023-07-13T06:19:22;17.20;;;6.50;;
5363;SDS011;2705;41.410;2.160;2023-07-13T06:21:51;23.13;;;6.80;;
5363;SDS011;2705;41.410;2.160;2023-07-13T06:24:25;15.47;;;6.80;;
5363;SDS011;2705;41.410;2.160;2023-07-13T06:26:55;18.20;;;6.67;;
5363;SDS011;2705;41.410;2.160;2023-07-13T06:29:24;15.10;;;6.23;;
5363;SDS011;2705;41.410;2.160;2023-07-13T06:31:53;23.27;;;6.93;;
5363;SDS011;2705;41.410;2.160;2023-07-13T06:34:23;22.73;;;6.30;;
5363;SDS011;2705;41.410;2.160;2023-07-13T06:36:53;12.07;;;6.67;;
5363;SDS011;2705;41.410;2.160;2023-07-13T06:39:22;19.43;;;7.17;;
5363;SDS011;2705;41.410;2.160;2023-07-13T06:41:54;16.50;;;6.90;;
5363;SDS011;2705;41.410;2.160;2023-07-13T06:44:24;16.50;;;6.53;;
5363;SDS011;2705;41.410;2.160;2023-07-13T06:46:54;17.40;;;6.20;;
5363;SDS011;2705;41.410;2.160;2023-07-13T06:49:24;18.03;;;6.33;;
5363;SDS011;2705;41.410;2.160;2023-07-13T06:51:53;27.13;;;8.23;;
5363;SDS011;2705;41.410;2.160;2023-07-13T06:54:23;19.13;;;8.20;;
5363;SDS011;2705;41.410;2.160;2023-07-13T06:56:54;18.20;;;7.10;;
5363;SDS011;2705;41.410;2.160;2023-07-13T06:59:24;19.83;;;6.77;;
5363;SDS011;2705;41.410;2.160;2023-07-13T07:01:53;22.40;;;7.50;;
5363;SDS011;2705;41.410;2.160;2023-07-13T07:04:23;19.13;;;7.30;;
5363;SDS011;2705;41.410;2.160;2023-07-13T07:06:52;21.57;;;12.03;;
5363;SDS011;2705;41.410;2.160;2023-07-13T07:09:25;26.10;;;7.50;;
5363;SDS011;2705;41.410;2.160;2023-07-13T07:11:58;17.40;;;7.87;;
5363;SDS011;2705;41.410;2.160;2023-07-13T07:14:30;16.43;;;6.67;;
5363;SDS011;2705;41.410;2.160;2023-07-13T07:17:01;15.43;;;7.00;;
5363;SDS011;2705;41.410;2.160;2023-07-13T07:19:31;23.20;;;8.43;;
5363;SDS011;2705;41.410;2.160;2023-07-13T07:22:01;11.20;;;6.47;;
5363;SDS011;2705;41.410;2.160;2023-07-13T07:24:31;18.20;;;7.63;;
5363;SDS011;2705;41.410;2.160;2023-07-13T07:27:03;20.13;;;7.50;;
5363;SDS011;2705;41.410;2.160;2023-07-13T07:29:36;14.37;;;6.77;;
5363;SDS011;2705;41.410;2.160;2023-07-13T07:32:12;18.23;;;7.00;;
5363;SDS011;2705;41.410;2.160;2023-07-13T07:35:02;23.80;;;7.93;;
5363;SDS011;2705;41.410;2.160;2023-07-13T07:37:32;18.57;;;7.00;;
5363;SDS011;2705;41.410;2.160;2023-07-13T07:40:05;19.40;;;6.33;;
5363;SDS011;2705;41.410;2.160;2023-07-13T07:42:39;18.43;;;6.57;;
5363;SDS011;2705;41.410;2.160;2023-07-13T07:45:09;21.77;;;7.23;;
5363;SDS011;2705;41.410;2.160;2023-07-13T07:47:41;19.20;;;6.60;;
5363;SDS011;2705;41.410;2.160;2023-07-13T07:50:11;13.67;;;6.27;;
5363;SDS011;2705;41.410;2.160;2023-07-13T07:52:40;17.50;;;7.17;;
5363;SDS011;2705;41.410;2.160;2023-07-13T07:55:11;17.60;;;8.03;;
5363;SDS011;2705;41.410;2.160;2023-07-13T07:57:45;12.50;;;6.83;;
5363;SDS011;2705;41.410;2.160;2023-07-13T08:00:18;15.80;;;6.03;;
5363;SDS011;2705;41.410;2.160;2023-07-13T08:02:50;20.30;;;7.13;;
5363;SDS011;2705;41.410;2.160;2023-07-13T08:05:40;22.13;;;8.23;;
5363;SDS011;2705;41.410;2.160;2023-07-13T08:08:22;17.00;;;7.33;;
5363;SDS011;2705;41.410;2.160;2023-07-13T08:10:51;22.77;;;7.80;;
5363;SDS011;2705;41.410;2.160;2023-07-13T08:13:28;15.50;;;7.70;;
5363;SDS011;2705;41.410;2.160;2023-07-13T08:15:58;28.13;;;8.93;;
5363;SDS011;2705;41.410;2.160;2023-07-13T08:18:28;25.33;;;7.83;;
5363;SDS011;2705;41.410;2.160;2023-07-13T08:20:58;25.23;;;9.23;;
5363;SDS011;2705;41.410;2.160;2023-07-13T08:23:27;18.03;;;7.83;;
5363;SDS011;2705;41.410;2.160;2023-07-13T08:26:00;22.40;;;8.03;;
5363;SDS011;2705;41.410;2.160;2023-07-13T08:28:31;18.33;;;7.57;;
5363;SDS011;2705;41.410;2.160;2023-07-13T08:31:01;19.97;;;8.13;;
5363;SDS011;2705;41.410;2.160;2023-07-13T08:33:30;22.90;;;8.50;;
5363;SDS011;2705;41.410;2.160;2023-07-13T08:36:00;22.80;;;8.63;;
5363;SDS011;2705;41.410;2.160;2023-07-13T08:38:30;23.47;;;8.50;;
5363;SDS011;2705;41.410;2.160;2023-07-13T08:41:00;26.00;;;8.20;;
5363;SDS011;2705;41.410;2.160;2023-07-13T08:43:34;19.33;;;8.53;;
5363;SDS011;2705;41.410;2.160;2023-07-13T08:46:05;15.23;;;7.57;;
5363;SDS011;2705;41.410;2.160;2023-07-13T08:48:38;27.67;;;8.90;;
5363;SDS011;2705;41.410;2.160;2023-07-13T08:51:11;20.93;;;9.70;;
5363;SDS011;2705;41.410;2.160;2023-07-13T08:53:44;28.93;;;9.37;;
5363;SDS011;2705;41.410;2.160;2023-07-13T08:56:16;28.60;;;9.20;;
5363;SDS011;2705;41.410;2.160;2023-07-13T08:58:50;23.20;;;7.33;;
5363;SDS011;2705;41.410;2.160;2023-07-13T09:01:23;20.90;;;7.60;;
5363;SDS011;2705;41.410;2.160;2023-07-13T09:03:56;15.77;;;7.40;;
5363;SDS011;2705;41.410;2.160;2023-07-13T09:06:29;22.00;;;8.03;;
5363;SDS011;2705;41.410;2.160;2023-07-13T09:09:01;22.93;;;7.70;;
5363;SDS011;2705;41.410;2.160;2023-07-13T09:11:36;23.27;;;7.93;;
5363;SDS011;2705;41.410;2.160;2023-07-13T09:14:17;21.17;;;8.87;;
5363;SDS011;2705;41.410;2.160;2023-07-13T09:16:50;20.77;;;7.87;;
5363;SDS011;2705;41.410;2.160;2023-07-13T09:19:21;20.03;;;7.20;;
5363;SDS011;2705;41.410;2.160;2023-07-13T09:21:52;21.70;;;6.50;;
5363;SDS011;2705;41.410;2.160;2023-07-13T09:24:28;21.07;;;7.50;;
5363;SDS011;2705;41.410;2.160;2023-07-13T09:26:58;19.80;;;6.70;;
5363;SDS011;2705;41.410;2.160;2023-07-13T09:29:32;24.73;;;8.07;;
5363;SDS011;2705;41.410;2.160;2023-07-13T09:32:04;35.47;;;7.50;;
5363;SDS011;2705;41.410;2.160;2023-07-13T09:34:36;21.50;;;7.57;;
5363;SDS011;2705;41.410;2.160;2023-07-13T09:37:05;21.73;;;7.00;;
5363;SDS011;2705;41.410;2.160;2023-07-13T09:39:35;21.83;;;6.53;;
5363;SDS011;2705;41.410;2.160;2023-07-13T09:42:07;15.30;;;7.57;;
5363;SDS011;2705;41.410;2.160;2023-07-13T09:44:52;25.70;;;6.83;;
5363;SDS011;2705;41.410;2.160;2023-07-13T09:47:23;18.60;;;7.77;;
5363;SDS011;2705;41.410;2.160;2023-07-13T09:49:54;18.63;;;7.03;;
5363;SDS011;2705;41.410;2.160;2023-07-13T09:52:38;20.60;;;6.03;;
5363;SDS011;2705;41.410;2.160;2023-07-13T09:58:04;16.07;;;6.23;;
5363;SDS011;2705;41.410;2.160;2023-07-13T10:00:36;19.63;;;7.07;;
5363;SDS011;2705;41.410;2.160;2023-07-13T10:03:13;14.77;;;6.37;;
5363;SDS011;2705;41.410;2.160;2023-07-13T10:05:44;12.93;;;5.50;;
5363;SDS011;2705;41.410;2.160;2023-07-13T10:08:17;17.93;;;6.60;;
5363;SDS011;2705;41.410;2.160;2023-07-13T10:10:51;14.00;;;6.13;;
5363;SDS011;2705;41.410;2.160;2023-07-13T10:13:30;9.70;;;5.00;;
5363;SDS011;2705;41.410;2.160;2023-07-13T10:16:03;26.97;;;7.00;;
5363;SDS011;2705;41.410;2.160;2023-07-13T10:18:39;17.73;;;4.80;;
5363;SDS011;2705;41.410;2.160;2023-07-13T10:21:12;26.00;;;5.60;;
5363;SDS011;2705;41.410;2.160;2023-07-13T10:23:47;20.13;;;5.80;;
5363;SDS011;2705;41.410;2.160;2023-07-13T10:26:19;15.60;;;5.63;;
5363;SDS011;2705;41.410;2.160;2023-07-13T10:28:51;18.23;;;5.77;;
5363;SDS011;2705;41.410;2.160;2023-07-13T10:31:24;13.10;;;4.60;;
5363;SDS011;2705;41.410;2.160;2023-07-13T10:33:54;11.70;;;4.30;;
5363;SDS011;2705;41.410;2.160;2023-07-13T10:36:27;7.77;;;4.40;;
5363;SDS011;2705;41.410;2.160;2023-07-13T10:38:58;21.40;;;4.50;;
5363;SDS011;2705;41.410;2.160;2023-07-13T10:41:29;16.30;;;4.50;;
5363;SDS011;2705;41.410;2.160;2023-07-13T10:44:00;17.60;;;4.60;;
5363;SDS011;2705;41.410;2.160;2023-07-13T10:46:32;114.23;;;18.23;;
5363;SDS011;2705;41.410;2.160;2023-07-13T10:49:04;46.20;;;7.87;;
5363;SDS011;2705;41.410;2.160;2023-07-13T10:51:34;14.03;;;5.07;;
5363;SDS011;2705;41.410;2.160;2023-07-13T10:54:12;17.43;;;5.40;;
5363;SDS011;2705;41.410;2.160;2023-07-13T10:56:48;13.30;;;4.90;;
5363;SDS011;2705;41.410;2.160;2023-07-13T10:59:20;10.83;;;4.30;;
5363;SDS011;2705;41.410;2.160;2023-07-13T11:01:58;19.70;;;5.27;;
5363;SDS011;2705;41.410;2.160;2023-07-13T11:04:29;14.97;;;4.70;;
5363;SDS011;2705;41.410;2.160;2023-07-13T11:06:59;15.17;;;3.63;;
5363;SDS011;2705;41.410;2.160;2023-07-13T11:09:38;8.03;;;4.20;;
5363;SDS011;2705;41.410;2.160;2023-07-13T11:12:09;10.20;;;4.60;;
5363;SDS011;2705;41.410;2.160;2023-07-13T11:14:43;13.97;;;3.63;;
5363;SDS011;2705;41.410;2.160;2023-07-13T11:20:19;10.40;;;3.93;;
5363;SDS011;2705;41.410;2.160;2023-07-13T11:22:51;10.77;;;3.73;;
5363;SDS011;2705;41.410;2.160;2023-07-13T11:25:25;6.60;;;4.23;;
5363;SDS011;2705;41.410;2.160;2023-07-13T11:28:07;14.37;;;3.87;;
5363;SDS011;2705;41.410;2.160;2023-07-13T11:30:42;9.40;;;4.10;;
5363;SDS011;2705;41.410;2.160;2023-07-13T11:33:14;8.63;;;2.90;;
5363;SDS011;2705;41.410;2.160;2023-07-13T11:35:49;9.40;;;2.90;;
5363;SDS011;2705;41.410;2.160;2023-07-13T11:38:21;9.70;;;3.50;;
5363;SDS011;2705;41.410;2.160;2023-07-13T11:40:51;7.50;;;2.77;;
5363;SDS011;2705;41.410;2.160;2023-07-13T11:43:23;8.60;;;3.07;;
5363;SDS011;2705;41.410;2.160;2023-07-13T11:45:52;4.40;;;2.60;;
5363;SDS011;2705;41.410;2.160;2023-07-13T11:48:23;14.90;;;3.20;;
5363;SDS011;2705;41.410;2.160;2023-07-13T11:50:55;5.90;;;3.20;;
5363;SDS011;2705;41.410;2.160;2023-07-13T11:53:26;6.80;;;3.23;;
5363;SDS011;2705;41.410;2.160;2023-07-13T11:55:57;4.63;;;2.73;;
5363;SDS011;2705;41.410;2.160;2023-07-13T11:58:27;12.93;;;3.03;;
5363;SDS011;2705;41.410;2.160;2023-07-13T12:00:58;43.07;;;3.83;;
5363;SDS011;2705;41.410;2.160;2023-07-13T12:03:29;12.20;;;2.90;;
5363;SDS011;2705;41.410;2.160;2023-07-13T12:06:00;6.33;;;4.00;;
5363;SDS011;2705;41.410;2.160;2023-07-13T12:08:37;7.90;;;3.10;;
5363;SDS011;2705;41.410;2.160;2023-07-13T12:11:16;8.87;;;3.73;;
5363;SDS011;2705;41.410;2.160;2023-07-13T12:13:47;9.77;;;3.70;;
5363;SDS011;2705;41.410;2.160;2023-07-13T12:16:18;10.00;;;3.80;;
5363;SDS011;2705;41.410;2.160;2023-07-13T12:18:52;6.17;;;2.70;;
5363;SDS011;2705;41.410;2.160;2023-07-13T12:21:24;4.70;;;3.00;;
5363;SDS011;2705;41.410;2.160;2023-07-13T12:23:56;9.07;;;2.87;;
5363;SDS011;2705;41.410;2.160;2023-07-13T12:26:25;5.57;;;2.70;;
5363;SDS011;2705;41.410;2.160;2023-07-13T12:28:56;16.60;;;3.20;;
5363;SDS011;2705;41.410;2.160;2023-07-13T12:31:29;9.27;;;3.00;;
5363;SDS011;2705;41.410;2.160;2023-07-13T12:34:00;7.60;;;2.63;;
5363;SDS011;2705;41.410;2.160;2023-07-13T12:36:33;7.73;;;4.03;;
5363;SDS011;2705;41.410;2.160;2023-07-13T12:39:04;11.43;;;3.83;;
5363;SDS011;2705;41.410;2.160;2023-07-13T12:41:40;6.57;;;3.10;;
5363;SDS011;2705;41.410;2.160;2023-07-13T12:44:12;5.43;;;3.17;;
5363;SDS011;2705;41.410;2.160;2023-07-13T12:46:53;12.83;;;2.97;;
5363;SDS011;2705;41.410;2.160;2023-07-13T12:49:24;7.90;;;2.60;;
5363;SDS011;2705;41.410;2.160;2023-07-13T12:51:59;10.20;;;3.03;;
5363;SDS011;2705;41.410;2.160;2023-07-13T12:54:29;5.53;;;3.13;;
5363;SDS011;2705;41.410;2.160;2023-07-13T12:57:00;6.87;;;3.20;;
5363;SDS011;2705;41.410;2.160;2023-07-13T12:59:31;8.70;;;3.57;;
5363;SDS011;2705;41.410;2.160;2023-07-13T13:02:08;11.03;;;2.50;;
5363;SDS011;2705;41.410;2.160;2023-07-13T13:04:49;7.80;;;2.80;;
5363;SDS011;2705;41.410;2.160;2023-07-13T13:07:21;6.23;;;3.00;;
5363;SDS011;2705;41.410;2.160;2023-07-13T13:09:50;8.57;;;4.60;;
5363;SDS011;2705;41.410;2.160;2023-07-13T13:12:21;7.37;;;3.40;;
5363;SDS011;2705;41.410;2.160;2023-07-13T13:14:53;7.07;;;3.17;;
5363;SDS011;2705;41.410;2.160;2023-07-13T13:17:27;7.70;;;3.23;;
5363;SDS011;2705;41.410;2.160;2023-07-13T13:19:58;6.53;;;2.63;;
5363;SDS011;2705;41.410;2.160;2023-07-13T13:22:30;7.90;;;2.90;;
5363;SDS011;2705;41.410;2.160;2023-07-13T13:25:00;7.93;;;3.43;;
5363;SDS011;2705;41.410;2.160;2023-07-13T13:27:32;5.60;;;3.50;;
5363;SDS011;2705;41.410;2.160;2023-07-13T13:30:02;7.63;;;3.30;;
5363;SDS011;2705;41.410;2.160;2023-07-13T13:32:32;7.10;;;3.10;;
5363;SDS011;2705;41.410;2.160;2023-07-13T13:35:02;8.37;;;3.20;;
5363;SDS011;2705;41.410;2.160;2023-07-13T13:37:33;7.63;;;3.50;;
5363;SDS011;2705;41.410;2.160;2023-07-13T13:40:04;17.63;;;3.80;;
5363;SDS011;2705;41.410;2.160;2023-07-13T13:42:36;8.80;;;3.70;;
5363;SDS011;2705;41.410;2.160;2023-07-13T13:45:06;11.50;;;3.03;;
5363;SDS011;2705;41.410;2.160;2023-07-13T13:47:36;5.80;;;2.70;;
5363;SDS011;2705;41.410;2.160;2023-07-13T13:50:12;8.80;;;2.90;;
5363;SDS011;2705;41.410;2.160;2023-07-13T13:52:44;5.93;;;2.67;;
5363;SDS011;2705;41.410;2.160;2023-07-13T13:55:15;5.83;;;2.90;;
5363;SDS011;2705;41.410;2.160;2023-07-13T13:57:46;4.80;;;2.83;;
5363;SDS011;2705;41.410;2.160;2023-07-13T14:00:17;10.43;;;2.97;;
5363;SDS011;2705;41.410;2.160;2023-07-13T14:02:47;4.40;;;3.00;;
5363;SDS011;2705;41.410;2.160;2023-07-13T14:05:20;5.23;;;2.90;;
5363;SDS011;2705;41.410;2.160;2023-07-13T14:07:53;3.77;;;3.10;;
5363;SDS011;2705;41.410;2.160;2023-07-13T14:10:23;9.03;;;3.07;;
5363;SDS011;2705;41.410;2.160;2023-07-13T14:12:54;5.77;;;2.60;;
5363;SDS011;2705;41.410;2.160;2023-07-13T14:15:25;9.93;;;3.83;;
5363;SDS011;2705;41.410;2.160;2023-07-13T14:17:55;8.60;;;3.70;;
5363;SDS011;2705;41.410;2.160;2023-07-13T14:20:25;4.80;;;2.93;;
5363;SDS011;2705;41.410;2.160;2023-07-13T14:22:58;5.50;;;2.73;;
5363;SDS011;2705;41.410;2.160;2023-07-13T14:25:28;8.53;;;2.87;;
5363;SDS011;2705;41.410;2.160;2023-07-13T14:27:58;5.97;;;3.20;;
5363;SDS011;2705;41.410;2.160;2023-07-13T14:30:31;10.30;;;3.10;;
5363;SDS011;2705;41.410;2.160;2023-07-13T14:33:00;13.83;;;4.13;;
5363;SDS011;2705;41.410;2.160;2023-07-13T14:35:30;10.17;;;3.73;;
5363;SDS011;2705;41.410;2.160;2023-07-13T14:38:01;11.30;;;3.60;;
5363;SDS011;2705;41.410;2.160;2023-07-13T14:40:31;9.83;;;3.43;;
5363;SDS011;2705;41.410;2.160;2023-07-13T14:43:00;8.13;;;2.87;;
5363;SDS011;2705;41.410;2.160;2023-07-13T14:45:30;7.50;;;3.53;;
5363;SDS011;2705;41.410;2.160;2023-07-13T14:48:00;8.00;;;3.33;;
5363;SDS011;2705;41.410;2.160;2023-07-13T14:50:32;18.87;;;2.73;;
5363;SDS011;2705;41.410;2.160;2023-07-13T14:53:04;10.13;;;3.37;;
5363;SDS011;2705;41.410;2.160;2023-07-13T14:55:34;6.00;;;3.17;;
5363;SDS011;2705;41.410;2.160;2023-07-13T14:58:03;7.10;;;3.80;;
5363;SDS011;2705;41.410;2.160;2023-07-13T15:00:33;8.53;;;3.30;;
5363;SDS011;2705;41.410;2.160;2023-07-13T15:03:03;7.10;;;3.07;;
5363;SDS011;2705;41.410;2.160;2023-07-13T15:05:33;7.63;;;3.30;;
5363;SDS011;2705;41.410;2.160;2023-07-13T15:08:03;11.90;;;3.37;;
5363;SDS011;2705;41.410;2.160;2023-07-13T15:10:34;8.90;;;2.83;;
5363;SDS011;2705;41.410;2.160;2023-07-13T15:13:13;11.53;;;3.23;;
5363;SDS011;2705;41.410;2.160;2023-07-13T15:15:45;9.90;;;3.57;;
5363;SDS011;2705;41.410;2.160;2023-07-13T15:18:15;8.93;;;3.90;;
5363;SDS011;2705;41.410;2.160;2023-07-13T15:20:45;14.53;;;3.87;;
5363;SDS011;2705;41.410;2.160;2023-07-13T15:23:16;10.80;;;3.20;;
5363;SDS011;2705;41.410;2.160;2023-07-13T15:25:47;8.90;;;4.30;;
5363;SDS011;2705;41.410;2.160;2023-07-13T15:28:18;8.53;;;3.23;;
5363;SDS011;2705;41.410;2.160;2023-07-13T15:30:48;12.73;;;3.83;;
5363;SDS011;2705;41.410;2.160;2023-07-13T15:33:19;7.73;;;3.30;;
5363;SDS011;2705;41.410;2.160;2023-07-13T15:35:50;8.03;;;3.87;;